Aviation Digital Data Service (ADDS)

Output produced by METARs form (1051 UTC 17 June 2019)
found at http://www.aviationweather.gov/metar/data/
 
Forecast for: OJAQ (AQABA INTL AIRPO, JO)
Text: TAF OJAQ 170500Z 1706/1812 36008KT 7000 NSC
Forecast period: 0600 UTC 17 June 2019 to 1200 UTC 18 June 2019
Forecast type: FROM: standard forecast or significant change
Winds: from the N (360 degrees) at 9 MPH (8 knots; 4.1 m/s)
Visibility: 4 miles (7 km)
Ceiling: unknown
Clouds: missing
Weather: no significant weather forecast for this period
Text: TEMPO 1710/1718 22008KT
Forecast period: 1000 to 1800 UTC 17 June 2019
Forecast type: TEMPORARY: The following changes expected for less than half the time period
Winds: from the SW (220 degrees) at 9 MPH (8 knots; 4.1 m/s)
Visibility: missing
Ceiling: unknown
Clouds: missing
Weather: no significant weather forecast for this period